createdAt,value
2023-01-17T00:00:24.520Z,2.37
2023-01-17T00:01:24.478Z,2.37
2023-01-17T00:02:24.540Z,2.34
2023-01-17T00:03:24.454Z,2.34
2023-01-17T00:04:24.462Z,2.34
2023-01-17T00:05:24.437Z,2.33
2023-01-17T00:06:24.431Z,2.34
2023-01-17T00:07:24.414Z,2.35
2023-01-17T00:08:24.407Z,2.35
2023-01-17T00:09:24.408Z,2.35
2023-01-17T00:10:24.397Z,2.33
2023-01-17T00:11:24.374Z,2.31
2023-01-17T00:12:24.372Z,2.30
2023-01-17T00:13:24.353Z,2.28
2023-01-17T00:14:24.367Z,2.27
2023-01-17T00:15:24.345Z,2.27
2023-01-17T00:16:24.329Z,2.23
2023-01-17T00:17:24.327Z,2.20
2023-01-17T00:18:24.302Z,2.20
2023-01-17T00:19:24.388Z,2.19
2023-01-17T00:20:24.287Z,2.19
2023-01-17T00:21:24.277Z,2.16
2023-01-17T00:22:24.265Z,2.15
2023-01-17T00:23:24.259Z,2.15
2023-01-17T00:24:24.257Z,2.16
2023-01-17T00:25:24.241Z,2.12
2023-01-17T00:26:24.224Z,2.16
2023-01-17T00:27:24.224Z,2.13
2023-01-17T00:28:24.213Z,2.10
2023-01-17T00:29:24.215Z,2.13
2023-01-17T00:30:24.193Z,2.12
2023-01-17T00:31:24.220Z,2.09
2023-01-17T00:32:24.169Z,2.09
2023-01-17T00:33:24.161Z,2.10
2023-01-17T00:34:24.157Z,2.09
2023-01-17T00:35:24.143Z,2.08
2023-01-17T00:36:24.127Z,2.06
2023-01-17T00:37:24.121Z,2.01
2023-01-17T00:38:24.103Z,2.06
2023-01-17T00:39:24.120Z,2.01
2023-01-17T00:40:24.100Z,1.98
2023-01-17T00:41:24.083Z,1.99
2023-01-17T00:42:24.075Z,1.99
2023-01-17T00:43:24.066Z,1.98
2023-01-17T00:44:24.059Z,1.98
2023-01-17T00:45:24.045Z,1.97
2023-01-17T00:46:24.050Z,1.93
2023-01-17T00:47:24.027Z,1.94
2023-01-17T00:48:24.006Z,1.89
2023-01-17T00:49:24.133Z,1.93
2023-01-17T00:50:23.988Z,1.90
2023-01-17T00:51:23.990Z,1.89
2023-01-17T00:52:23.972Z,1.89
2023-01-17T00:53:23.966Z,1.89
2023-01-17T00:54:23.976Z,1.83
2023-01-17T00:55:23.962Z,1.82
2023-01-17T00:56:23.928Z,1.80
2023-01-17T00:57:23.926Z,1.76
2023-01-17T00:58:23.921Z,1.76
2023-01-17T00:59:23.916Z,1.75
2023-01-17T01:00:23.903Z,1.73
2023-01-17T01:01:24.092Z,1.72
2023-01-17T01:02:23.961Z,1.72
2023-01-17T01:03:23.864Z,1.72
2023-01-17T01:04:23.865Z,1.72
2023-01-17T01:05:23.851Z,1.72
2023-01-17T01:06:23.834Z,1.76
2023-01-17T01:07:23.827Z,1.76
2023-01-17T01:08:23.809Z,1.75
2023-01-17T01:09:23.821Z,1.78
2023-01-17T01:10:23.791Z,1.79
2023-01-17T01:11:23.791Z,1.80
2023-01-17T01:12:23.781Z,1.78
2023-01-17T01:13:23.768Z,1.78
2023-01-17T01:14:23.777Z,1.82
2023-01-17T01:15:23.748Z,1.82
2023-01-17T01:16:23.772Z,1.82
2023-01-17T01:17:23.736Z,1.83
2023-01-17T01:18:23.719Z,1.83
2023-01-17T01:19:23.722Z,1.85
2023-01-17T01:20:23.695Z,1.87
2023-01-17T01:21:23.693Z,1.90
2023-01-17T01:22:23.672Z,1.93
2023-01-17T01:23:23.666Z,1.93
2023-01-17T01:24:23.669Z,1.94
2023-01-17T01:25:23.660Z,1.94
2023-01-17T01:26:23.637Z,1.91
2023-01-17T01:27:23.629Z,1.94
2023-01-17T01:28:23.627Z,1.93
2023-01-17T01:29:23.629Z,1.97
2023-01-17T01:30:23.597Z,1.98
2023-01-17T01:31:23.613Z,1.97
2023-01-17T01:32:23.574Z,1.97
2023-01-17T01:33:23.572Z,1.94
2023-01-17T01:34:23.573Z,1.98
2023-01-17T01:35:23.552Z,1.98
2023-01-17T01:36:23.540Z,1.97
2023-01-17T01:37:23.529Z,1.98
2023-01-17T01:38:23.538Z,1.98
2023-01-17T01:39:23.527Z,1.99
2023-01-17T01:40:23.497Z,1.98
2023-01-17T01:41:23.500Z,1.97
2023-01-17T01:42:23.477Z,1.98
2023-01-17T01:43:23.474Z,1.99
2023-01-17T01:44:23.474Z,1.99
2023-01-17T01:45:23.486Z,2.01
2023-01-17T01:46:23.441Z,2.01
2023-01-17T01:47:23.434Z,1.99
2023-01-17T01:48:23.416Z,2.01
2023-01-17T01:49:23.426Z,2.01
2023-01-17T01:50:23.400Z,2.01
2023-01-17T01:51:23.394Z,2.04
2023-01-17T01:52:23.376Z,2.02
2023-01-17T01:53:23.374Z,2.08
2023-01-17T01:54:23.377Z,2.09
2023-01-17T01:55:23.354Z,2.10
2023-01-17T01:56:23.336Z,2.12
2023-01-17T01:57:23.334Z,2.10
2023-01-17T01:58:23.330Z,2.09
2023-01-17T01:59:23.339Z,2.12
2023-01-17T02:00:23.304Z,2.12
2023-01-17T02:01:23.391Z,2.13
2023-01-17T02:02:23.281Z,2.12
2023-01-17T02:03:23.292Z,2.12
2023-01-17T02:04:23.277Z,2.09
2023-01-17T02:05:23.258Z,2.08
2023-01-17T02:06:23.240Z,2.09
2023-01-17T02:07:23.254Z,2.10
2023-01-17T02:08:23.230Z,2.12
2023-01-17T02:09:23.236Z,2.09
2023-01-17T02:10:23.202Z,2.12
2023-01-17T02:11:23.210Z,2.08
2023-01-17T02:12:23.183Z,2.09
2023-01-17T02:13:23.179Z,2.09
2023-01-17T02:14:23.184Z,2.08
2023-01-17T02:15:23.156Z,2.06
2023-01-17T02:16:23.192Z,2.09
2023-01-17T02:17:23.142Z,2.08
2023-01-17T02:18:23.138Z,2.10
2023-01-17T02:19:23.129Z,2.09
2023-01-17T02:20:23.103Z,2.08
2023-01-17T02:21:23.098Z,2.09
2023-01-17T02:22:23.081Z,2.10
2023-01-17T02:23:23.081Z,2.10
2023-01-17T02:24:23.101Z,2.10
2023-01-17T02:25:23.058Z,2.13
2023-01-17T02:26:23.046Z,2.10
2023-01-17T02:27:23.040Z,2.10
2023-01-17T02:28:23.028Z,2.10
2023-01-17T02:29:23.026Z,2.10
2023-01-17T02:30:23.020Z,2.10
2023-01-17T02:31:23.072Z,2.10
2023-01-17T02:32:22.986Z,2.13
2023-01-17T02:33:22.980Z,2.15
2023-01-17T02:34:22.971Z,2.13
2023-01-17T02:35:22.976Z,2.17
2023-01-17T02:36:22.947Z,2.13
2023-01-17T02:37:22.948Z,2.13
2023-01-17T02:38:22.930Z,2.13
2023-01-17T02:39:22.919Z,2.12
2023-01-17T02:40:22.925Z,2.10
2023-01-17T02:41:22.930Z,2.09
2023-01-17T02:42:22.917Z,2.08
2023-01-17T02:43:22.880Z,2.09
2023-01-17T02:44:22.883Z,2.10
2023-01-17T02:45:22.894Z,2.09
2023-01-17T02:46:22.844Z,2.08
2023-01-17T02:47:22.841Z,2.10
2023-01-17T02:48:22.831Z,2.12
2023-01-17T02:49:22.822Z,2.15
2023-01-17T02:50:22.823Z,2.15
2023-01-17T02:51:22.801Z,2.13
2023-01-17T02:52:22.790Z,2.13
2023-01-17T02:53:22.780Z,2.13
2023-01-17T02:54:22.766Z,2.10
2023-01-17T02:55:22.788Z,2.09
2023-01-17T02:56:22.752Z,2.06
2023-01-17T02:57:22.743Z,2.08
2023-01-17T02:58:22.730Z,2.01
2023-01-17T02:59:22.724Z,1.97
2023-01-17T03:00:22.725Z,1.94
2023-01-17T03:01:22.810Z,1.89
2023-01-17T03:02:22.728Z,1.89
2023-01-17T03:03:22.690Z,1.89
2023-01-17T03:04:22.698Z,1.89
2023-01-17T03:05:22.677Z,1.87
2023-01-17T03:06:22.650Z,1.85
2023-01-17T03:07:22.664Z,1.85
2023-01-17T03:08:22.628Z,1.85
2023-01-17T03:09:22.628Z,1.85
2023-01-17T03:10:22.631Z,1.87
2023-01-17T03:11:22.611Z,1.87
2023-01-17T03:12:22.606Z,1.85
2023-01-17T03:13:22.587Z,1.83
2023-01-17T03:14:22.575Z,1.82
2023-01-17T03:15:22.578Z,1.87
2023-01-17T03:16:22.581Z,1.83
2023-01-17T03:17:22.556Z,1.80
2023-01-17T03:18:22.540Z,1.82
2023-01-17T03:19:22.531Z,1.80
2023-01-17T03:20:22.812Z,1.82
2023-01-17T03:21:22.521Z,1.83
2023-01-17T03:22:22.490Z,1.82
2023-01-17T03:23:22.488Z,1.80
2023-01-17T03:24:22.471Z,1.80
2023-01-17T03:25:22.485Z,1.80
2023-01-17T03:26:22.451Z,1.79
2023-01-17T03:27:22.451Z,1.79
2023-01-17T03:28:22.434Z,1.82
2023-01-17T03:29:22.432Z,1.78
2023-01-17T03:30:22.455Z,1.82
2023-01-17T03:31:22.407Z,1.76
2023-01-17T03:32:22.391Z,1.79
2023-01-17T03:33:22.388Z,1.82
2023-01-17T03:34:22.373Z,1.79
2023-01-17T03:35:22.387Z,1.76
2023-01-17T03:36:22.351Z,1.76
2023-01-17T03:37:22.360Z,1.76
2023-01-17T03:38:22.347Z,1.76
2023-01-17T03:39:22.329Z,1.75
2023-01-17T03:40:22.335Z,1.78
2023-01-17T03:41:22.306Z,1.71
2023-01-17T03:42:22.300Z,1.73
2023-01-17T03:43:22.294Z,1.73
2023-01-17T03:44:22.289Z,1.71
2023-01-17T03:45:22.296Z,1.69
2023-01-17T03:46:22.261Z,1.71
2023-01-17T03:47:22.259Z,1.72
2023-01-17T03:48:22.234Z,1.72
2023-01-17T03:49:22.230Z,1.71
2023-01-17T03:50:22.229Z,1.73
2023-01-17T03:51:22.248Z,1.71
2023-01-17T03:52:22.204Z,1.72
2023-01-17T03:53:22.190Z,1.71
2023-01-17T03:54:22.183Z,1.72
2023-01-17T03:55:22.182Z,1.72
2023-01-17T03:56:22.158Z,1.72
2023-01-17T03:57:22.157Z,1.73
2023-01-17T03:58:22.137Z,1.72
2023-01-17T03:59:22.131Z,1.72
2023-01-17T04:00:22.129Z,1.71
2023-01-17T04:01:22.194Z,1.71
2023-01-17T04:02:22.126Z,1.72
2023-01-17T04:03:22.099Z,1.69
2023-01-17T04:04:22.080Z,1.72
2023-01-17T04:05:22.103Z,1.68
2023-01-17T04:06:22.061Z,1.69
2023-01-17T04:07:22.058Z,1.68
2023-01-17T04:08:22.041Z,1.65
2023-01-17T04:09:22.033Z,1.62
2023-01-17T04:10:22.037Z,1.61
2023-01-17T04:11:22.013Z,1.64
2023-01-17T04:12:22.000Z,1.61
2023-01-17T04:13:21.993Z,1.60
2023-01-17T04:14:21.986Z,1.57
2023-01-17T04:15:21.985Z,1.57
2023-01-17T04:16:28.061Z,1.60
2023-01-17T04:17:21.956Z,1.60
2023-01-17T04:18:24.573Z,1.60
2023-01-17T04:19:21.936Z,1.58
2023-01-17T04:20:21.936Z,1.58
2023-01-17T04:21:21.921Z,1.58
2023-01-17T04:22:21.902Z,1.57
2023-01-17T04:23:21.895Z,1.54
2023-01-17T04:24:21.889Z,1.55
2023-01-17T04:25:21.893Z,1.54
2023-01-17T04:26:21.860Z,1.52
2023-01-17T04:27:21.894Z,1.47
2023-01-17T04:28:21.855Z,1.44
2023-01-17T04:29:21.841Z,1.43
2023-01-17T04:30:21.840Z,1.40
2023-01-17T04:31:21.878Z,1.36
2023-01-17T04:32:21.803Z,1.32
2023-01-17T04:33:21.797Z,1.29
2023-01-17T04:34:21.784Z,1.28
2023-01-17T04:35:21.789Z,1.21
2023-01-17T04:36:21.779Z,1.21
2023-01-17T04:37:21.753Z,1.18
2023-01-17T04:38:21.757Z,1.10
2023-01-17T04:39:21.731Z,1.04
2023-01-17T04:40:21.749Z,1.01
2023-01-17T04:41:21.715Z,1.03
2023-01-17T04:42:21.709Z,1.04
2023-01-17T04:43:21.698Z,1.04
2023-01-17T04:44:21.688Z,1.01
2023-01-17T04:45:21.694Z,1.00
2023-01-17T04:46:21.747Z,1.01
2023-01-17T04:47:21.658Z,0.98
2023-01-17T04:48:21.648Z,0.97
2023-01-17T04:49:21.635Z,0.97
2023-01-17T04:50:21.645Z,0.96
2023-01-17T04:51:21.641Z,0.96
2023-01-17T04:52:21.617Z,0.97
2023-01-17T04:53:21.595Z,0.98
2023-01-17T04:54:21.593Z,0.97
2023-01-17T04:55:21.592Z,0.97
2023-01-17T04:56:21.576Z,0.94
2023-01-17T04:57:21.554Z,0.92
2023-01-17T04:58:21.555Z,0.94
2023-01-17T04:59:21.538Z,0.90
2023-01-17T05:00:23.989Z,0.86
2023-01-17T05:01:21.659Z,0.82
2023-01-17T05:02:21.551Z,0.78
2023-01-17T05:03:21.499Z,0.76
2023-01-17T05:04:21.494Z,0.72
2023-01-17T05:05:21.498Z,0.70
2023-01-17T05:06:21.477Z,0.72
2023-01-17T05:07:21.461Z,0.71
2023-01-17T05:08:21.451Z,0.71
2023-01-17T05:09:21.440Z,0.72
2023-01-17T05:10:21.445Z,0.71
2023-01-17T05:11:21.432Z,0.71
2023-01-17T05:12:21.512Z,0.68
2023-01-17T05:13:21.399Z,0.62
2023-01-17T05:14:21.393Z,0.60
2023-01-17T05:15:21.400Z,0.52
2023-01-17T05:16:21.377Z,0.48
2023-01-17T05:17:21.364Z,0.49
2023-01-17T05:18:21.373Z,0.46
2023-01-17T05:19:21.355Z,0.46
2023-01-17T05:20:21.353Z,0.46
2023-01-17T05:21:21.327Z,0.46
2023-01-17T05:22:21.316Z,0.46
2023-01-17T05:23:21.305Z,0.48
2023-01-17T05:24:21.296Z,0.48
2023-01-17T05:25:21.292Z,0.48
2023-01-17T05:26:21.345Z,0.52
2023-01-17T05:27:21.256Z,0.53
2023-01-17T05:28:21.251Z,0.52
2023-01-17T05:29:21.239Z,0.53
2023-01-17T05:30:21.251Z,0.53
2023-01-17T05:31:21.399Z,0.51
2023-01-17T05:32:21.214Z,0.57
2023-01-17T05:33:21.205Z,0.53
2023-01-17T05:34:21.205Z,0.58
2023-01-17T05:35:21.196Z,0.60
2023-01-17T05:36:21.317Z,0.57
2023-01-17T05:37:21.170Z,0.61
2023-01-17T05:38:21.153Z,0.62
2023-01-17T05:39:21.166Z,0.61
2023-01-17T05:40:21.154Z,0.61
2023-01-17T05:41:21.120Z,0.60
2023-01-17T05:42:21.120Z,0.57
2023-01-17T05:43:22.248Z,0.52
2023-01-17T05:44:21.100Z,0.52
2023-01-17T05:45:21.096Z,0.46
2023-01-17T05:46:21.125Z,0.48
2023-01-17T05:47:21.071Z,0.45
2023-01-17T05:48:21.075Z,0.43
2023-01-17T05:49:21.053Z,0.39
2023-01-17T05:50:21.061Z,0.39
2023-01-17T05:51:21.018Z,0.42
2023-01-17T05:52:21.011Z,0.39
2023-01-17T05:53:21.034Z,0.38
2023-01-17T05:54:20.997Z,0.38
2023-01-17T05:55:20.986Z,0.38
2023-01-17T05:56:21.007Z,0.39
2023-01-17T05:57:20.995Z,0.39
2023-01-17T05:58:20.975Z,0.38
2023-01-17T05:59:35.973Z,0.39
2023-01-17T06:00:20.948Z,0.39
2023-01-17T06:01:20.971Z,0.41
2023-01-17T06:02:20.936Z,0.39
2023-01-17T06:03:20.920Z,0.36
2023-01-17T06:04:20.931Z,0.38
2023-01-17T06:05:20.888Z,0.38
2023-01-17T06:06:20.888Z,0.34
2023-01-17T06:07:20.859Z,0.33
2023-01-17T06:08:20.853Z,0.34
2023-01-17T06:09:20.846Z,0.27
2023-01-17T06:10:20.843Z,0.28
2023-01-17T06:11:20.840Z,0.27
2023-01-17T06:12:22.101Z,0.25
2023-01-17T06:13:20.802Z,0.24
2023-01-17T06:14:20.796Z,0.24
2023-01-17T06:15:20.784Z,0.24
2023-01-17T06:16:20.848Z,0.20
2023-01-17T06:17:20.760Z,0.21
2023-01-17T06:18:20.756Z,0.24
2023-01-17T06:19:20.742Z,0.23
2023-01-17T06:20:20.744Z,0.23
2023-01-17T06:21:20.737Z,0.24
2023-01-17T06:22:20.721Z,0.24
2023-01-17T06:23:20.704Z,0.24
2023-01-17T06:24:20.700Z,0.24
2023-01-17T06:25:20.693Z,0.27
2023-01-17T06:26:20.692Z,0.25
2023-01-17T06:27:20.667Z,0.20
2023-01-17T06:28:20.658Z,0.27
2023-01-17T06:29:20.645Z,0.18
2023-01-17T06:30:20.640Z,0.18
2023-01-17T06:31:20.673Z,0.16
2023-01-17T06:32:20.621Z,0.16
2023-01-17T06:33:20.616Z,0.16
2023-01-17T06:34:20.602Z,0.15
2023-01-17T06:35:20.586Z,0.18
2023-01-17T06:36:20.609Z,0.18
2023-01-17T06:37:20.572Z,0.18
2023-01-17T06:38:20.574Z,0.20
2023-01-17T06:39:20.547Z,0.20
2023-01-17T06:40:20.544Z,0.20
2023-01-17T06:41:20.487Z,0.21
2023-01-17T06:42:20.520Z,0.21
2023-01-17T06:43:20.508Z,0.20
2023-01-17T06:44:20.458Z,0.20
2023-01-17T06:45:20.436Z,0.18
2023-01-17T06:46:20.474Z,0.16
2023-01-17T06:47:20.470Z,0.16
2023-01-17T06:48:20.424Z,0.13
2023-01-17T06:49:20.395Z,0.13
2023-01-17T06:50:20.386Z,0.10
2023-01-17T06:51:20.392Z,0.06
2023-01-17T06:52:20.369Z,0.12
2023-01-17T06:53:20.354Z,0.13
2023-01-17T06:54:20.355Z,0.10
2023-01-17T06:55:20.335Z,0.15
2023-01-17T06:56:20.343Z,0.15
2023-01-17T06:57:20.321Z,0.16
2023-01-17T06:58:20.305Z,0.20
2023-01-17T06:59:20.294Z,0.20
2023-01-17T07:00:20.299Z,0.20
2023-01-17T07:01:20.421Z,0.24
2023-01-17T07:02:20.267Z,0.24
2023-01-17T07:03:20.254Z,0.24
2023-01-17T07:04:20.253Z,0.23
2023-01-17T07:05:20.235Z,0.23
2023-01-17T07:06:20.269Z,0.23
2023-01-17T07:07:20.216Z,0.23
2023-01-17T07:08:20.214Z,0.23
2023-01-17T07:09:20.214Z,0.20
2023-01-17T07:10:20.187Z,0.24
2023-01-17T07:11:20.189Z,0.23
2023-01-17T07:12:20.173Z,0.25
2023-01-17T07:13:20.164Z,0.25
2023-01-17T07:14:20.152Z,0.24
2023-01-17T07:15:20.140Z,0.27
2023-01-17T07:16:20.195Z,0.27
2023-01-17T07:17:20.116Z,0.28
2023-01-17T07:18:20.113Z,0.28
2023-01-17T07:19:20.102Z,0.25
2023-01-17T07:20:20.109Z,0.24
2023-01-17T07:21:20.095Z,0.21
2023-01-17T07:22:20.074Z,0.20
2023-01-17T07:23:20.059Z,0.18
2023-01-17T07:24:20.052Z,0.20
2023-01-17T07:25:20.056Z,0.20
2023-01-17T07:26:20.048Z,0.18
2023-01-17T07:27:20.032Z,0.20
2023-01-17T07:28:20.015Z,0.18
2023-01-17T07:29:19.999Z,0.16
2023-01-17T07:30:20.001Z,0.16
2023-01-17T07:31:20.033Z,0.18
2023-01-17T07:32:19.977Z,0.15
2023-01-17T07:33:19.959Z,0.16
2023-01-17T07:34:19.951Z,0.18
2023-01-17T07:35:19.949Z,0.16
2023-01-17T07:36:19.952Z,0.18
2023-01-17T07:37:19.975Z,0.18
2023-01-17T07:38:19.920Z,0.21
2023-01-17T07:39:19.905Z,0.24
2023-01-17T07:40:19.928Z,0.21
2023-01-17T07:41:19.911Z,0.21
2023-01-17T07:42:19.897Z,0.21
2023-01-17T07:43:19.861Z,0.16
2023-01-17T07:44:19.853Z,0.15
2023-01-17T07:45:19.849Z,0.16
2023-01-17T07:46:19.895Z,0.15
2023-01-17T07:47:19.821Z,0.12
2023-01-17T07:48:19.825Z,0.16
2023-01-17T07:49:19.811Z,0.12
2023-01-17T07:50:19.796Z,0.13
2023-01-17T07:51:19.791Z,0.18
2023-01-17T07:52:19.778Z,0.18
2023-01-17T07:53:19.763Z,0.21
2023-01-17T07:54:19.754Z,0.25
2023-01-17T07:55:19.741Z,0.25
2023-01-17T07:56:19.756Z,0.24
2023-01-17T07:57:19.736Z,0.27
2023-01-17T07:58:19.720Z,0.25
2023-01-17T07:59:19.721Z,0.21
2023-01-17T08:00:19.708Z,0.21
2023-01-17T08:01:19.817Z,0.24
2023-01-17T08:02:19.691Z,0.27
2023-01-17T08:03:19.703Z,0.27
2023-01-17T08:04:19.682Z,0.28
2023-01-17T08:05:19.673Z,0.28
2023-01-17T08:06:19.677Z,0.28
2023-01-17T08:07:19.630Z,0.27
2023-01-17T08:08:19.641Z,0.25
2023-01-17T08:09:19.612Z,0.24
2023-01-17T08:10:19.621Z,0.30
2023-01-17T08:11:19.616Z,0.30
2023-01-17T08:12:19.591Z,0.30
2023-01-17T08:13:19.573Z,0.34
2023-01-17T08:14:19.565Z,0.36
2023-01-17T08:15:19.552Z,0.42
2023-01-17T08:16:19.596Z,0.48
2023-01-17T08:17:19.535Z,0.53
2023-01-17T08:18:19.527Z,0.53
2023-01-17T08:19:19.509Z,0.60
2023-01-17T08:20:19.505Z,0.60
2023-01-17T08:21:19.518Z,0.57
2023-01-17T08:22:19.487Z,0.53
2023-01-17T08:23:19.472Z,0.52
2023-01-17T08:24:19.477Z,0.49
2023-01-17T08:25:19.456Z,0.51
2023-01-17T08:26:19.489Z,0.51
2023-01-17T08:27:19.454Z,0.49
2023-01-17T08:28:19.426Z,0.49
2023-01-17T08:29:19.403Z,0.52
2023-01-17T08:30:19.403Z,0.52
2023-01-17T08:31:19.402Z,0.53
2023-01-17T08:32:19.404Z,0.53
2023-01-17T08:33:19.362Z,0.57
2023-01-17T08:34:19.356Z,0.61
2023-01-17T08:35:19.341Z,0.62
2023-01-17T08:36:19.344Z,0.67
2023-01-17T08:37:19.337Z,0.65
2023-01-17T08:38:19.316Z,0.67
2023-01-17T08:39:19.306Z,0.64
2023-01-17T08:40:19.300Z,0.62
2023-01-17T08:41:19.281Z,0.64
2023-01-17T08:42:19.293Z,0.60
2023-01-17T08:43:19.262Z,0.61
2023-01-17T08:44:19.261Z,0.64
2023-01-17T08:45:19.243Z,0.64
2023-01-17T08:46:19.264Z,0.67
2023-01-17T08:47:19.258Z,0.67
2023-01-17T08:48:19.236Z,0.70
2023-01-17T08:49:19.222Z,0.70
2023-01-17T08:50:19.200Z,0.71
2023-01-17T08:51:19.196Z,0.68
2023-01-17T08:52:19.196Z,0.65
2023-01-17T08:53:19.183Z,0.58
2023-01-17T08:54:19.169Z,0.53
2023-01-17T08:55:19.167Z,0.49
2023-01-17T08:56:19.149Z,0.42
2023-01-17T08:57:19.150Z,0.42
2023-01-17T08:58:19.118Z,0.34
2023-01-17T08:59:19.129Z,0.31
2023-01-17T09:00:19.113Z,0.28
2023-01-17T09:01:19.193Z,0.23
2023-01-17T09:02:19.123Z,0.25
2023-01-17T09:03:19.871Z,0.41
2023-01-17T09:04:19.115Z,0.45
2023-01-17T09:05:19.066Z,0.57
2023-01-17T09:06:19.051Z,0.72
2023-01-17T09:07:19.057Z,0.76
2023-01-17T09:08:19.025Z,0.82
2023-01-17T09:09:19.035Z,0.82
2023-01-17T09:10:19.054Z,0.82
2023-01-17T09:11:19.010Z,0.79
2023-01-17T09:12:19.020Z,0.80
2023-01-17T09:13:18.987Z,0.79
2023-01-17T09:14:18.978Z,0.80
2023-01-17T09:15:18.957Z,0.83
2023-01-17T09:16:19.002Z,0.90
2023-01-17T09:17:18.968Z,0.94
2023-01-17T09:18:18.933Z,0.97
2023-01-17T09:19:18.936Z,0.98
2023-01-17T09:20:18.905Z,1.01
2023-01-17T09:21:18.898Z,1.07
2023-01-17T09:22:18.906Z,1.15
2023-01-17T09:23:18.873Z,1.24
2023-01-17T09:24:18.866Z,1.25
2023-01-17T09:25:18.886Z,1.29
2023-01-17T09:26:18.845Z,1.36
2023-01-17T09:27:18.862Z,1.28
2023-01-17T09:28:18.828Z,1.22
2023-01-17T09:29:18.836Z,1.12
2023-01-17T09:30:18.813Z,1.10
2023-01-17T09:31:18.817Z,1.06
2023-01-17T09:32:18.806Z,1.01
2023-01-17T09:33:18.789Z,1.06
2023-01-17T09:34:18.777Z,1.06
2023-01-17T09:35:18.771Z,1.06
2023-01-17T09:36:18.758Z,1.14
2023-01-17T09:37:18.774Z,1.15
2023-01-17T09:38:18.733Z,1.18
2023-01-17T09:39:18.717Z,1.22
2023-01-17T09:40:18.703Z,1.36
2023-01-17T09:41:18.690Z,1.39
2023-01-17T09:42:18.695Z,1.34
2023-01-17T09:43:18.673Z,1.34
2023-01-17T09:44:18.662Z,1.37
2023-01-17T09:45:19.450Z,1.46
2023-01-17T09:46:18.651Z,1.58
2023-01-17T09:47:18.746Z,1.87
2023-01-17T09:48:18.629Z,2.22
2023-01-17T09:49:18.624Z,2.12
2023-01-17T09:50:18.613Z,2.20
2023-01-17T09:51:18.600Z,2.33
2023-01-17T09:52:18.608Z,2.55
2023-01-17T09:53:18.571Z,2.56
2023-01-17T09:54:18.574Z,2.73
2023-01-17T09:55:18.567Z,2.46
2023-01-17T09:56:18.551Z,2.20
2023-01-17T09:57:18.574Z,2.27
2023-01-17T09:58:18.534Z,2.35
2023-01-17T09:59:19.085Z,2.28
2023-01-17T10:00:18.508Z,2.02
2023-01-17T10:01:18.766Z,1.78
2023-01-17T10:02:18.825Z,1.55
2023-01-17T10:03:18.678Z,1.40
2023-01-17T10:04:18.615Z,1.37
2023-01-17T10:05:18.456Z,1.28
2023-01-17T10:06:18.453Z,1.15
2023-01-17T10:07:18.477Z,1.26
2023-01-17T10:08:18.425Z,1.83
2023-01-17T10:09:18.436Z,2.34
2023-01-17T10:10:18.408Z,2.58
2023-01-17T10:11:18.404Z,2.52
2023-01-17T10:12:18.404Z,2.23
2023-01-17T10:13:18.378Z,1.98
2023-01-17T10:14:18.367Z,1.79
2023-01-17T10:15:18.359Z,1.87
2023-01-17T10:16:18.418Z,1.82
2023-01-17T10:17:18.355Z,1.89
2023-01-17T10:18:29.182Z,1.90
2023-01-17T10:19:18.334Z,1.83
2023-01-17T10:20:18.291Z,1.94
2023-01-17T10:21:18.284Z,1.69
2023-01-17T10:22:18.290Z,1.62
2023-01-17T10:23:18.274Z,1.54
2023-01-17T10:24:24.268Z,1.44
2023-01-17T10:25:18.248Z,1.24
2023-01-17T10:26:18.232Z,1.15
2023-01-17T10:27:18.241Z,1.15
2023-01-17T10:28:18.222Z,1.25
2023-01-17T10:29:20.166Z,1.47
2023-01-17T10:30:18.197Z,1.58
2023-01-17T10:31:18.191Z,1.52
2023-01-17T10:32:18.184Z,1.62
2023-01-17T10:33:18.184Z,1.89
2023-01-17T10:34:18.154Z,2.08
2023-01-17T10:35:18.150Z,2.16
2023-01-17T10:36:18.144Z,2.30
2023-01-17T10:37:18.134Z,2.51
2023-01-17T10:38:18.113Z,2.63
2023-01-17T10:39:18.106Z,2.61
2023-01-17T10:40:18.091Z,2.51
2023-01-17T10:41:18.088Z,2.58
2023-01-17T10:42:18.087Z,2.94
2023-01-17T10:43:18.070Z,3.34
2023-01-17T10:44:18.052Z,3.75
2023-01-17T10:45:18.071Z,4.47
2023-01-17T10:46:18.205Z,4.94
2023-01-17T10:47:18.060Z,5.49
2023-01-17T10:48:18.012Z,5.59
2023-01-17T10:49:18.026Z,5.64
2023-01-17T10:50:17.993Z,5.07
2023-01-17T10:51:18.007Z,4.21
2023-01-17T10:52:17.983Z,3.61
2023-01-17T10:53:17.966Z,3.70
2023-01-17T10:54:17.956Z,3.96
2023-01-17T10:55:17.945Z,3.27
2023-01-17T10:56:17.930Z,3.00
2023-01-17T10:57:17.945Z,2.67
2023-01-17T10:58:17.915Z,2.37
2023-01-17T10:59:17.920Z,2.23
2023-01-17T11:00:17.983Z,2.08
2023-01-17T11:01:18.008Z,1.87
2023-01-17T11:02:17.976Z,1.65
2023-01-17T11:03:17.877Z,1.57
2023-01-17T11:04:17.872Z,1.46
2023-01-17T11:05:17.853Z,1.42
2023-01-17T11:06:17.830Z,1.34
2023-01-17T11:07:17.855Z,1.25
2023-01-17T11:08:17.806Z,1.16
2023-01-17T11:09:17.814Z,1.12
2023-01-17T11:10:17.846Z,1.12
2023-01-17T11:11:17.782Z,1.06
2023-01-17T11:12:17.786Z,0.97
2023-01-17T11:13:17.763Z,0.96
2023-01-17T11:14:17.756Z,0.85
2023-01-17T11:15:17.794Z,0.83
2023-01-17T11:16:17.724Z,0.82
2023-01-17T11:17:17.736Z,0.78
2023-01-17T11:18:17.717Z,0.79
2023-01-17T11:19:17.715Z,0.78
2023-01-17T11:20:17.743Z,0.76
2023-01-17T11:21:17.690Z,0.68
2023-01-17T11:22:17.684Z,0.67
2023-01-17T11:23:17.664Z,0.68
2023-01-17T11:24:17.669Z,0.65
2023-01-17T11:25:17.641Z,0.61
2023-01-17T11:26:17.630Z,0.62
2023-01-17T11:27:17.635Z,0.60
2023-01-17T11:28:17.610Z,0.58
2023-01-17T11:29:17.619Z,0.61
2023-01-17T11:30:17.685Z,0.61
2023-01-17T11:31:17.629Z,0.61
2023-01-17T11:32:17.579Z,0.67
2023-01-17T11:33:17.578Z,0.68
2023-01-17T11:34:17.552Z,0.82
2023-01-17T11:35:17.560Z,0.92
2023-01-17T11:36:17.532Z,1.26
2023-01-17T11:37:17.525Z,1.36
2023-01-17T11:38:17.523Z,2.15
2023-01-17T11:39:17.505Z,2.37
2023-01-17T11:40:17.490Z,1.93
2023-01-17T11:41:17.483Z,1.69
2023-01-17T11:42:17.471Z,1.52
2023-01-17T11:43:17.491Z,1.40
2023-01-17T11:44:17.451Z,1.34
2023-01-17T11:45:17.454Z,1.51
2023-01-17T11:46:17.455Z,2.46
2023-01-17T11:47:17.433Z,2.95
2023-01-17T11:48:17.430Z,3.52
2023-01-17T11:49:17.402Z,4.08
2023-01-17T11:50:17.452Z,4.39
2023-01-17T11:51:17.387Z,4.64
2023-01-17T11:52:17.368Z,4.84
2023-01-17T11:53:17.380Z,4.44
2023-01-17T11:54:17.355Z,4.57
2023-01-17T11:55:17.344Z,4.67
2023-01-17T11:56:17.330Z,4.86
2023-01-17T11:57:17.337Z,5.04
2023-01-17T11:58:17.320Z,5.28
2023-01-17T11:59:17.300Z,5.46
2023-01-17T12:00:17.289Z,5.82
2023-01-17T12:01:17.331Z,6.13
2023-01-17T12:02:17.281Z,5.73
2023-01-17T12:03:17.282Z,5.52
2023-01-17T12:04:17.246Z,5.75
2023-01-17T12:05:17.303Z,5.92
2023-01-17T12:06:17.230Z,5.88
2023-01-17T12:07:17.220Z,5.60
2023-01-17T12:08:17.230Z,4.91
2023-01-17T12:09:17.199Z,5.10
2023-01-17T12:10:17.185Z,4.84
2023-01-17T12:11:17.188Z,4.44
2023-01-17T12:12:17.163Z,4.29
2023-01-17T12:13:17.173Z,4.04
2023-01-17T12:14:17.174Z,3.88
2023-01-17T12:15:17.159Z,3.76
2023-01-17T12:16:17.181Z,4.03
2023-01-17T12:17:17.116Z,3.86
2023-01-17T12:18:17.125Z,3.64
2023-01-17T12:19:17.099Z,3.57
2023-01-17T12:20:17.084Z,3.24
2023-01-17T12:21:17.083Z,2.95
2023-01-17T12:22:17.072Z,2.76
2023-01-17T12:23:17.069Z,2.55
2023-01-17T12:24:17.051Z,2.40
2023-01-17T12:25:17.039Z,2.30
2023-01-17T12:26:17.054Z,2.19
2023-01-17T12:27:17.019Z,2.12
2023-01-17T12:28:17.019Z,2.01
2023-01-17T12:29:16.996Z,1.91
2023-01-17T12:30:16.980Z,1.83
2023-01-17T12:31:17.006Z,1.80
2023-01-17T12:32:16.974Z,1.76
2023-01-17T12:33:16.966Z,1.69
2023-01-17T12:34:16.945Z,1.68
2023-01-17T12:35:16.944Z,1.60
2023-01-17T12:36:16.921Z,1.55
2023-01-17T12:37:16.911Z,1.57
2023-01-17T12:38:31.213Z,1.62
2023-01-17T12:39:16.905Z,1.64
2023-01-17T12:40:16.898Z,1.89
2023-01-17T12:41:16.880Z,2.26
2023-01-17T12:42:16.872Z,2.45
2023-01-17T12:43:16.869Z,2.51
2023-01-17T12:44:16.842Z,2.55
2023-01-17T12:45:16.833Z,2.38
2023-01-17T12:46:16.847Z,2.37
2023-01-17T12:47:16.815Z,2.31
2023-01-17T12:48:16.817Z,2.22
2023-01-17T12:49:16.792Z,2.13
2023-01-17T12:50:16.782Z,2.10
2023-01-17T12:51:16.777Z,2.13
2023-01-17T12:52:16.758Z,2.15
2023-01-17T12:53:16.772Z,2.19
2023-01-17T12:54:16.742Z,2.15
2023-01-17T12:55:16.732Z,2.09
2023-01-17T12:56:16.720Z,1.99
2023-01-17T12:57:16.717Z,1.98
2023-01-17T12:58:16.714Z,1.89
2023-01-17T12:59:16.697Z,1.85
2023-01-17T13:00:16.690Z,1.78
2023-01-17T13:01:16.831Z,1.76
2023-01-17T13:02:16.708Z,1.69
2023-01-17T13:03:16.669Z,1.65
2023-01-17T13:04:16.655Z,1.60
2023-01-17T13:05:16.637Z,1.60
2023-01-17T13:06:16.625Z,1.62
2023-01-17T13:07:16.614Z,1.58
2023-01-17T13:08:16.624Z,1.60
2023-01-17T13:09:16.607Z,1.57
2023-01-17T13:10:16.583Z,1.57
2023-01-17T13:11:16.574Z,1.58
2023-01-17T13:12:16.573Z,1.61
2023-01-17T13:13:16.575Z,1.58
2023-01-17T13:14:16.564Z,1.65
2023-01-17T13:15:16.563Z,1.64
2023-01-17T13:16:16.596Z,1.68
2023-01-17T13:17:16.513Z,1.64
2023-01-17T13:18:16.517Z,1.64